createdAt,value
2022-10-02T00:00:00.138Z,12.3
2022-10-02T00:10:00.150Z,12.2
2022-10-02T00:20:00.145Z,12.3
2022-10-02T00:30:00.168Z,12.4
2022-10-02T00:40:00.145Z,12.5
2022-10-02T01:00:01.417Z,12.4
2022-10-02T01:10:02.098Z,12.4
2022-10-02T01:20:02.173Z,12.3
2022-10-02T01:30:03.590Z,12.0
2022-10-02T01:40:01.371Z,12.0
2022-10-02T01:50:00.129Z,11.9
2022-10-02T02:00:01.493Z,11.9
2022-10-02T02:10:01.084Z,12.0
2022-10-02T02:20:01.000Z,11.8
2022-10-02T02:30:00.144Z,11.9
2022-10-02T02:40:02.046Z,11.8
2022-10-02T02:50:01.359Z,11.7
2022-10-02T03:00:01.082Z,11.5
2022-10-02T03:10:01.032Z,11.5
2022-10-02T03:20:01.212Z,11.4
2022-10-02T03:30:01.001Z,11.3
2022-10-02T03:40:00.173Z,11.3
2022-10-02T03:50:01.531Z,11.3
2022-10-02T04:00:01.296Z,11.5
2022-10-02T04:10:01.271Z,11.6
2022-10-02T04:20:00.169Z,11.7
2022-10-02T04:30:01.076Z,11.7
2022-10-02T04:50:00.154Z,12.0
2022-10-02T05:00:01.525Z,12.1
2022-10-02T05:10:00.140Z,12.5
2022-10-02T05:20:00.181Z,12.4
2022-10-02T05:30:01.561Z,12.2
2022-10-02T05:50:01.551Z,12.4
2022-10-02T06:00:00.201Z,12.7
2022-10-02T06:10:01.211Z,12.6
2022-10-02T06:20:03.473Z,12.2
2022-10-02T06:30:01.738Z,12.5
2022-10-02T06:40:01.028Z,12.7
2022-10-02T06:50:01.188Z,12.6
2022-10-02T07:00:01.295Z,12.4
2022-10-02T07:10:02.357Z,12.6
2022-10-02T07:20:01.529Z,12.9
2022-10-02T07:30:00.144Z,13.1
2022-10-02T07:40:00.176Z,13.6
2022-10-02T07:50:01.082Z,14.3
2022-10-02T08:00:00.981Z,14.5
2022-10-02T08:10:00.124Z,15.0
2022-10-02T08:20:00.971Z,15.0
2022-10-02T08:30:00.142Z,15.5
2022-10-02T08:40:01.460Z,15.5
2022-10-02T08:50:01.013Z,15.8
2022-10-02T09:00:01.313Z,16.1
2022-10-02T09:10:01.532Z,16.2
2022-10-02T09:20:01.073Z,16.7
2022-10-02T09:30:02.213Z,16.1
2022-10-02T09:50:01.213Z,16.5
2022-10-02T10:00:00.190Z,16.9
2022-10-02T10:10:01.247Z,16.6
2022-10-02T10:20:00.179Z,15.7
2022-10-02T10:30:01.507Z,14.9
2022-10-02T10:40:01.575Z,14.7
2022-10-02T10:50:02.232Z,15.6
2022-10-02T11:00:01.271Z,16.0
2022-10-02T11:10:01.022Z,17.2
2022-10-02T11:20:01.058Z,16.2
2022-10-02T11:30:01.498Z,15.9
2022-10-02T11:40:01.038Z,14.9
2022-10-02T11:50:01.033Z,17.2
2022-10-02T12:00:01.288Z,19.0
2022-10-02T12:10:01.232Z,18.2
2022-10-02T12:20:01.562Z,18.9
2022-10-02T12:30:02.183Z,19.7
2022-10-02T12:40:01.221Z,17.4
2022-10-02T12:50:01.462Z,16.9
2022-10-02T13:00:01.289Z,17.6
2022-10-02T13:10:03.043Z,21.2
2022-10-02T13:20:00.160Z,21.5
2022-10-02T13:30:01.199Z,20.9
2022-10-02T13:40:01.583Z,18.3
2022-10-02T13:50:00.162Z,16.7
2022-10-02T14:00:01.656Z,19.8
2022-10-02T14:10:02.988Z,19.4
2022-10-02T14:20:02.669Z,20.1
2022-10-02T14:30:01.051Z,19.5
2022-10-02T14:50:01.487Z,20.4
2022-10-02T15:00:02.458Z,19.5
2022-10-02T15:10:01.549Z,19.4
2022-10-02T15:20:01.511Z,17.4
2022-10-02T15:30:02.427Z,18.4
2022-10-02T15:40:00.170Z,17.6
2022-10-02T15:50:01.029Z,17.3
2022-10-02T16:00:01.345Z,16.6
2022-10-02T16:10:00.179Z,16.5
2022-10-02T16:20:01.870Z,15.8
2022-10-02T16:30:01.242Z,15.5
2022-10-02T16:40:02.589Z,15.4
2022-10-02T16:50:01.433Z,15.0
2022-10-02T17:00:00.175Z,14.8
2022-10-02T17:10:01.439Z,14.5
2022-10-02T17:20:00.193Z,14.4
2022-10-02T17:30:01.893Z,14.3
2022-10-02T17:40:01.182Z,14.1
2022-10-02T17:50:00.948Z,14.2
2022-10-02T18:00:03.861Z,14.0
2022-10-02T18:10:01.264Z,13.8
2022-10-02T18:20:01.007Z,14.0
2022-10-02T18:30:00.134Z,14.1
2022-10-02T18:40:06.093Z,13.9
2022-10-02T18:50:01.272Z,13.8
2022-10-02T19:00:01.506Z,13.6
2022-10-02T19:10:01.210Z,13.4
2022-10-02T19:20:01.020Z,13.4
2022-10-02T19:30:01.298Z,13.3
2022-10-02T19:40:00.217Z,13.1
2022-10-02T19:50:00.183Z,13.1
2022-10-02T20:00:01.294Z,13.0
2022-10-02T20:10:03.401Z,12.9
2022-10-02T20:20:01.358Z,13.0
2022-10-02T20:30:02.198Z,12.8
2022-10-02T20:40:02.938Z,12.7
2022-10-02T20:50:00.995Z,12.6
2022-10-02T21:00:02.515Z,12.7
2022-10-02T21:10:01.495Z,12.7
2022-10-02T21:20:02.119Z,12.6
2022-10-02T21:30:01.459Z,12.3
2022-10-02T21:40:02.384Z,12.6
2022-10-02T21:50:00.154Z,12.4
2022-10-02T22:00:01.325Z,12.4
2022-10-02T22:10:00.148Z,12.4
2022-10-02T22:20:01.289Z,12.3
2022-10-02T22:30:02.333Z,12.2
2022-10-02T22:50:01.332Z,12.3
2022-10-02T23:00:01.282Z,12.3
2022-10-02T23:10:01.187Z,12.2
2022-10-02T23:20:02.783Z,12.1
2022-10-02T23:30:01.851Z,12.2
2022-10-02T23:40:00.168Z,12.3
2022-10-02T23:50:02.126Z,12.2
